Time;durP1;ratioP1;P1;durP2;ratioP2;P2;SDS_P1;SDS_P2;PMS_P1;PMS_P2;Temp;Humidity;BMP_temperature;BMP_pressure;BME280_temperature;BME280_humidity;BME280_pressure;Samples;Min_cycle;Max_cycle;Signal;HPM_P1;HPM_P2
2022/06/03 00:01:08;;;;;;;16.38;11.05;;;;;;;11.93;100.00;95685.28;5020418;28;20057;-72
2022/06/03 00:03:34;;;;;;;;;;;;;;;11.87;100.00;95687.16;5029165;28;20052;-72
2022/06/03 00:06:27;;;;;;;22.63;11.65;;;;;;;11.84;100.00;95687.69;5029956;28;19921;-72
2022/06/03 00:09:24;;;;;;;19.95;10.88;;;;;;;11.94;100.00;95677.13;5027594;28;20484;-72
2022/06/03 00:12:14;;;;;;;19.42;11.23;;;;;;;11.88;100.00;95682.66;5027232;28;20095;-72
2022/06/03 00:14:58;;;;;;;18.25;10.20;;;;;;;11.82;100.00;95675.84;5029545;28;20630;-72
2022/06/03 00:18:17;;;;;;;18.42;10.68;;;;;;;11.80;100.00;95670.84;5024210;28;20050;-72
2022/06/03 00:20:46;;;;;;;16.05;10.60;;;;;;;11.76;100.00;95669.81;4944371;29;20039;-72
2022/06/03 00:23:33;;;;;;;17.38;11.20;;;;;;;11.70;100.00;95686.72;5017614;28;20049;-72
2022/06/03 00:26:32;;;;;;;17.95;10.20;;;;;;;11.72;100.00;95666.13;5019210;28;20604;-72
2022/06/03 00:29:25;;;;;;;15.63;10.25;;;;;;;11.76;100.00;95669.81;4995014;28;20193;-72
2022/06/03 00:32:16;;;;;;;14.25;9.98;;;;;;;11.70;100.00;95663.00;5030182;28;20045;-72
2022/06/03 00:35:13;;;;;;;17.90;10.82;;;;;;;11.57;100.00;95667.78;5029291;28;20037;-72
2022/06/03 00:37:49;;;;;;;17.13;10.20;;;;;;;11.54;100.00;95670.19;4995876;28;20057;-72
2022/06/03 00:40:36;;;;;;;20.05;10.55;;;;;;;11.59;100.00;95665.69;5029749;28;20046;-72
2022/06/03 00:43:32;;;;;;;15.55;9.75;;;;;;;11.55;100.00;95658.56;5023613;28;20041;-73
2022/06/03 00:46:10;;;;;;;16.48;10.05;;;;;;;11.54;100.00;95659.66;4989347;28;20131;-72
2022/06/03 00:48:57;;;;;;;14.63;9.20;;;;;;;11.60;100.00;95651.44;5028042;28;20088;-72
2022/06/03 00:51:40;;;;;;;15.77;10.00;;;;;;;11.48;100.00;95656.25;5022218;28;20060;-72
2022/06/03 00:54:34;;;;;;;17.90;10.02;;;;;;;11.41;100.00;95653.13;5027696;28;20701;-72
2022/06/03 00:57:07;;;;;;;17.98;9.68;;;;;;;11.40;100.00;95654.94;5001161;28;20057;-72
2022/06/03 01:00:05;;;;;;;17.23;10.52;;;;;;;11.46;100.00;95654.94;5025004;28;20419;-72
2022/06/03 01:02:39;;;;;;;16.67;10.52;;;;;;;11.52;100.00;95648.59;5023506;28;20088;-72
2022/06/03 01:05:10;;;;;;;17.17;10.75;;;;;;;11.44;100.00;95647.31;5027774;28;20038;-73
2022/06/03 01:07:54;;;;;;;20.67;10.95;;;;;;;11.37;100.00;95646.81;5027423;28;20064;-72
2022/06/03 01:10:39;;;;;;;14.30;10.40;;;;;;;11.41;100.00;95653.13;5027726;28;20034;-72
2022/06/03 01:13:28;;;;;;;14.32;10.13;;;;;;;11.33;100.00;95645.78;5026750;28;20427;-72
2022/06/03 01:16:07;;;;;;;13.68;9.57;;;;;;;11.30;100.00;95647.09;5029344;28;20060;-72
2022/06/03 01:19:14;;;;;;;16.23;10.32;;;;;;;11.25;100.00;95640.00;5028245;28;20703;-72
2022/06/03 01:22:01;;;;;;;16.50;10.43;;;;;;;11.23;100.00;95636.88;4999543;28;20096;-72
2022/06/03 01:24:38;;;;;;;16.58;10.57;;;;;;;11.20;100.00;95633.97;5003758;28;20491;-72
2022/06/03 01:27:10;;;;;;;15.60;9.48;;;;;;;11.11;100.00;95633.75;5020729;28;20087;-73
2022/06/03 01:30:07;;;;;;;20.13;10.27;;;;;;;11.12;100.00;95632.69;5027661;28;20038;-72
2022/06/03 01:32:45;;;;;;;17.65;10.25;;;;;;;11.16;100.00;95641.63;5027453;28;20041;-72
2022/06/03 01:35:21;;;;;;;14.95;9.48;;;;;;;11.13;100.00;95633.47;5025079;28;20045;-72
2022/06/03 01:37:56;;;;;;;17.08;10.05;;;;;;;11.10;100.00;95637.44;5025046;28;20034;-72
2022/06/03 01:40:49;;;;;;;14.63;9.80;;;;;;;11.03;100.00;95631.66;5028919;28;20041;-72
2022/06/03 01:43:27;;;;;;;17.33;10.55;;;;;;;10.97;100.00;95627.47;5019666;28;20097;-72
2022/06/03 01:46:11;;;;;;;20.55;10.70;;;;;;;10.94;100.00;95628.00;5026551;28;20494;-71
2022/06/03 01:49:01;;;;;;;17.38;10.73;;;;;;;10.96;100.00;95621.44;5027279;28;20384;-72
2022/06/03 01:51:53;;;;;;;15.55;9.73;;;;;;;10.96;100.00;95620.63;5022200;28;20117;-72
2022/06/03 01:54:38;;;;;;;17.58;10.07;;;;;;;10.91;100.00;95622.22;5027386;28;20041;-72
2022/06/03 01:57:18;;;;;;;14.82;10.35;;;;;;;10.86;100.00;95611.72;5024973;28;20046;-72
2022/06/03 01:59:50;;;;;;;16.20;10.38;;;;;;;10.84;100.00;95608.53;5025924;28;20088;-72
2022/06/03 02:02:52;;;;;;;17.67;10.20;;;;;;;10.85;100.00;95612.75;5028364;28;20072;-72
2022/06/03 02:05:40;;;;;;;14.23;9.40;;;;;;;10.87;100.00;95618.53;5028331;28;20033;-72
2022/06/03 02:08:23;;;;;;;14.70;9.07;;;;;;;10.91;100.00;95619.59;5023682;28;20529;-72
2022/06/03 02:11:13;;;;;;;15.52;9.60;;;;;;;10.82;100.00;95629.09;5028777;28;20045;-72
2022/06/03 02:14:19;;;;;;;14.32;10.13;;;;;;;10.79;100.00;95616.47;5023587;28;20044;-72
2022/06/03 02:16:44;;;;;;;18.13;10.15;;;;;;;10.76;100.00;95627.53;5019543;28;20053;-72
2022/06/03 02:19:31;;;;;;;15.15;10.35;;;;;;;10.69;100.00;95632.28;5027364;28;20046;-72
2022/06/03 02:22:00;;;;;;;16.55;10.35;;;;;;;10.68;100.00;95635.97;5020722;28;20092;-72
2022/06/03 02:24:46;;;;;;;14.43;9.85;;;;;;;10.65;100.00;95636.50;5027643;28;20045;-72
2022/06/03 02:27:34;;;;;;;15.38;9.80;;;;;;;10.62;100.00;95626.53;5027960;28;20068;-72
2022/06/03 02:30:27;;;;;;;18.42;10.32;;;;;;;10.66;100.00;95623.09;5030757;28;20052;-72
2022/06/03 02:33:17;;;;;;;16.02;10.40;;;;;;;10.73;100.00;95623.59;5017313;28;20491;-74
2022/06/03 02:36:01;;;;;;;14.35;9.82;;;;;;;10.71;100.00;95625.69;5026337;28;20048;-73
2022/06/03 02:38:39;;;;;;;17.67;10.10;;;;;;;10.63;100.00;95625.44;5027992;28;20056;-73
2022/06/03 02:41:07;;;;;;;15.27;10.30;;;;;;;10.55;100.00;95627.56;5031235;28;20294;-72
2022/06/03 02:43:48;;;;;;;17.02;10.90;;;;;;;10.48;100.00;95621.78;5027584;28;20048;-72
2022/06/03 02:46:33;;;;;;;16.42;11.10;;;;;;;10.51;100.00;95610.72;5027206;28;20053;-72
2022/06/03 02:49:25;;;;;;;15.18;9.98;;;;;;;10.48;100.00;95599.97;5024511;28;20415;-72
2022/06/03 02:52:12;;;;;;;19.77;11.05;;;;;;;10.44;100.00;95593.66;5007527;28;20595;-72
2022/06/03 02:55:09;;;;;;;17.45;11.23;;;;;;;10.46;100.00;95592.34;5026557;28;20038;-72
2022/06/03 02:57:44;;;;;;;20.05;11.15;;;;;;;10.49;100.00;95597.06;5022557;28;20432;-72
2022/06/03 03:00:19;;;;;;;17.63;10.55;;;;;;;10.50;100.00;95597.84;5022884;28;20427;-72
2022/06/03 03:03:04;;;;;;;15.38;10.55;;;;;;;10.55;100.00;95596.00;5028256;28;20042;-73
2022/06/03 03:05:54;;;;;;;18.38;10.98;;;;;;;10.47;100.00;95599.16;5027807;28;20048;-73
2022/06/03 03:09:00;;;;;;;18.77;11.57;;;;;;;10.48;100.00;95606.00;5022596;28;20116;-73
2022/06/03 03:11:54;;;;;;;17.73;11.27;;;;;;;10.51;100.00;95610.72;5024301;28;20095;-73
2022/06/03 03:14:22;;;;;;;15.90;11.02;;;;;;;10.50;100.00;95614.44;5023218;28;20045;-73
2022/06/03 03:17:07;;;;;;;18.88;10.95;;;;;;;10.58;100.00;95621.75;5027983;28;20045;-73
2022/06/03 03:20:02;;;;;;;18.50;11.73;;;;;;;10.57;100.00;95629.94;5042486;28;20048;-72
2022/06/03 03:22:49;;;;;;;17.13;11.65;;;;;;;10.57;100.00;95630.75;5029812;28;20048;-73
2022/06/03 03:25:52;;;;;;;17.10;11.25;;;;;;;10.53;100.00;95634.94;5029852;28;20127;-73
2022/06/03 03:28:49;;;;;;;16.77;10.88;;;;;;;10.65;100.00;95631.25;5027866;28;20037;-72
2022/06/03 03:31:27;;;;;;;18.17;10.75;;;;;;;10.53;100.00;95627.06;5030160;28;20048;-72
2022/06/03 03:34:01;;;;;;;16.27;11.15;;;;;;;10.51;100.00;95626.50;5028821;28;20423;-72
2022/06/03 03:36:36;;;;;;;;;;;;;;;10.55;100.00;95630.19;5026606;28;20104;-72
2022/06/03 03:39:16;;;;;;;16.23;11.07;;;;;;;10.58;100.00;95627.03;5030146;28;19921;-72
2022/06/03 03:41:48;;;;;;;20.27;11.80;;;;;;;10.58;100.00;95624.41;5027196;28;20327;-72
2022/06/03 03:44:33;;;;;;;16.27;11.18;;;;;;;10.55;100.00;95627.56;5026280;28;20054;-72
2022/06/03 03:47:19;;;;;;;17.70;11.48;;;;;;;10.60;100.00;95628.63;5030944;28;20041;-72
2022/06/03 03:50:24;;;;;;;17.52;10.95;;;;;;;10.57;100.00;95636.00;5028338;28;20059;-72
2022/06/03 03:53:29;;;;;;;15.03;10.70;;;;;;;10.53;100.00;95632.31;5020486;28;20527;-72
2022/06/03 03:56:07;;;;;;;16.65;11.45;;;;;;;10.57;100.00;95641.25;5030865;28;20045;-71
2022/06/03 03:59:10;;;;;;;19.50;11.35;;;;;;;10.68;100.00;95628.06;5028178;28;20076;-72
2022/06/03 04:01:54;;;;;;;18.92;11.10;;;;;;;10.72;100.00;95631.75;5022408;28;20092;-72
2022/06/03 04:05:00;;;;;;;17.15;10.50;;;;;;;10.75;100.00;95631.22;5029563;28;20041;-72
2022/06/03 04:07:58;;;;;;;16.33;10.85;;;;;;;10.82;100.00;95637.00;5024956;28;20050;-72
2022/06/03 04:10:52;;;;;;;21.67;11.82;;;;;;;10.95;100.00;95646.19;5016623;28;20034;-72
2022/06/03 04:13:50;;;;;;;17.65;11.25;;;;;;;11.07;100.00;95643.25;5025767;28;20037;-72
2022/06/03 04:16:36;;;;;;;17.45;11.27;;;;;;;11.15;100.00;95645.31;4986364;28;20545;-72
2022/06/03 04:19:24;;;;;;;18.33;11.80;;;;;;;11.18;100.00;95650.03;5028698;28;20041;-72
2022/06/03 04:22:08;;;;;;;18.08;10.93;;;;;;;11.24;100.00;95646.31;5024641;28;20045;-72
2022/06/03 04:25:09;;;;;;;19.63;11.85;;;;;;;11.49;100.00;95660.44;5028354;28;20049;-73
2022/06/03 04:27:58;;;;;;;20.88;12.88;;;;;;;11.63;100.00;95654.59;5027618;28;20045;-72
2022/06/03 04:30:42;;;;;;;19.58;11.80;;;;;;;11.70;100.00;95660.34;5024769;28;20049;-72
2022/06/03 04:33:49;;;;;;;17.17;11.77;;;;;;;11.70;100.00;95655.88;5018057;28;20042;-72
2022/06/03 04:36:40;;;;;;;16.67;11.23;;;;;;;11.77;100.00;95661.63;5012178;28;20041;-71
2022/06/03 04:39:11;;;;;;;17.90;11.77;;;;;;;11.91;100.00;95659.19;5026180;28;20053;-71
2022/06/03 04:42:13;;;;;;;21.67;11.95;;;;;;;11.93;100.00;95654.44;5025365;28;20045;-72
2022/06/03 04:44:57;;;;;;;17.80;11.95;;;;;;;12.01;100.00;95649.63;5018635;28;20061;-72
2022/06/03 04:47:41;;;;;;;18.45;12.63;;;;;;;12.13;100.00;95636.91;5027287;28;20042;-72
2022/06/03 04:50:12;;;;;;;19.55;12.60;;;;;;;12.35;100.00;95639.09;5029186;28;20041;-71
2022/06/03 04:53:00;;;;;;;20.98;12.75;;;;;;;12.57;100.00;95641.28;5029256;28;20037;-72
2022/06/03 04:56:04;;;;;;;20.73;13.02;;;;;;;12.79;100.00;95643.44;5029573;28;20045;-71
2022/06/03 04:58:54;;;;;;;21.33;11.93;;;;;;;12.91;100.00;95635.13;5026801;28;20111;-72
2022/06/03 05:01:29;;;;;;;17.90;12.32;;;;;;;12.97;100.00;95634.03;5030138;28;20120;-72
2022/06/03 05:04:48;;;;;;;21.33;11.57;;;;;;;13.07;100.00;95642.88;5027758;28;20229;-72
2022/06/03 05:07:36;;;;;;;18.13;11.93;;;;;;;13.16;100.00;95646.50;5026401;28;20061;-72
2022/06/03 05:10:33;;;;;;;17.60;11.27;;;;;;;13.26;100.00;95641.09;5028256;28;20402;-72
2022/06/03 05:13:51;;;;;;;17.55;11.70;;;;;;;13.30;100.00;95636.81;5018663;28;20124;-70
2022/06/03 05:16:28;;;;;;;16.08;11.02;;;;;;;13.43;100.00;95634.56;5025810;28;20067;-71
2022/06/03 05:18:54;;;;;;;19.42;11.32;;;;;;;13.52;100.00;95627.56;5028998;28;20072;-70
2022/06/03 05:21:45;;;;;;;17.77;11.05;;;;;;;13.59;100.00;95628.00;5028395;28;20042;-71
2022/06/03 05:24:25;;;;;;;15.50;10.73;;;;;;;13.65;100.00;95621.56;5026236;28;20041;-71
2022/06/03 05:27:12;;;;;;;17.95;9.93;;;;;;;13.81;100.00;95618.72;5029327;28;20037;-70
2022/06/03 05:29:56;;;;;;;17.85;10.20;;;;;;;13.77;100.00;95620.38;5025302;28;20037;-70
2022/06/03 05:32:49;;;;;;;15.88;10.02;;;;;;;14.07;100.00;95615.69;5028407;28;20049;-72
2022/06/03 05:35:14;;;;;;;17.13;9.82;;;;;;;14.18;100.00;95611.81;5029562;28;20073;-72
2022/06/03 05:38:12;;;;;;;14.57;9.70;;;;;;;14.19;100.00;95621.31;5025852;28;20049;-72
2022/06/03 05:40:59;;;;;;;14.35;9.48;;;;;;;14.28;100.00;95621.44;5025285;28;20120;-72
2022/06/03 05:43:47;;;;;;;21.08;10.00;;;;;;;14.31;100.00;95616.34;5020045;28;20050;-72
2022/06/03 05:46:23;;;;;;;16.48;9.88;;;;;;;14.37;100.00;95609.88;5029523;28;20041;-71
2022/06/03 05:49:06;;;;;;;15.50;9.93;;;;;;;14.50;100.00;95612.88;5026119;28;20072;-72
2022/06/03 05:51:59;;;;;;;14.20;10.15;;;;;;;14.62;100.00;95609.78;5027699;28;20488;-72
2022/06/03 05:54:33;;;;;;;16.77;9.98;;;;;;;14.86;100.00;95623.63;5025676;28;20046;-72
2022/06/03 05:57:06;;;;;;;15.02;9.63;;;;;;;14.94;100.00;95622.19;5026830;28;20076;-72
2022/06/03 05:59:50;;;;;;;13.70;9.30;;;;;;;15.13;100.00;95608.81;5025429;28;20041;-70
2022/06/03 06:02:31;;;;;;;18.92;9.07;;;;;;;15.07;100.00;95605.47;5025567;28;20046;-70
2022/06/03 06:05:35;;;;;;;11.25;8.32;;;;;;;15.06;100.00;95603.91;5025510;28;20033;-71
2022/06/03 06:08:15;;;;;;;11.95;8.48;;;;;;;15.28;100.00;95599.00;5020073;28;20057;-73
2022/06/03 06:11:11;;;;;;;13.95;8.52;;;;;;;15.40;100.00;95602.69;5027730;28;20042;-71
2022/06/03 06:13:40;;;;;;;11.18;7.70;;;;;;;15.49;100.00;95610.72;5016576;28;20091;-74
2022/06/03 06:16:10;;;;;;;12.05;8.18;;;;;;;15.50;100.00;95607.00;5019938;28;20053;-77
2022/06/03 06:18:44;;;;;;;13.27;7.57;;;;;;;15.77;100.00;95605.34;5025243;28;20044;-74
2022/06/03 06:21:43;;;;;;;11.18;7.72;;;;;;;16.33;100.00;95600.63;5029349;28;20041;-77
2022/06/03 06:24:29;;;;;;;20.85;8.63;;;;;;;16.73;100.00;95605.97;5019185;28;20061;-76
2022/06/03 06:27:33;;;;;;;11.52;7.15;;;;;;;16.87;100.00;95607.78;5026170;28;20049;-79
2022/06/03 06:30:07;;;;;;;10.93;7.05;;;;;;;16.86;100.00;95612.28;5025089;28;20133;-76
2022/06/03 06:32:35;;;;;;;17.10;7.32;;;;;;;16.78;100.00;95605.84;5029591;28;20033;-75
2022/06/03 06:35:28;;;;;;;11.30;7.30;;;;;;;16.77;100.00;95606.94;5028304;28;20052;-75
2022/06/03 06:38:21;;;;;;;12.55;7.15;;;;;;;16.87;100.00;95613.09;5015410;28;20053;-76
2022/06/03 06:41:37;;;;;;;12.68;7.15;;;;;;;17.29;100.00;95618.88;5028011;28;20037;-74
2022/06/03 06:44:09;;;;;;;10.20;7.13;;;;;;;17.41;100.00;95627.03;4999021;28;20058;-74
2022/06/03 06:46:57;;;;;;;11.20;6.82;;;;;;;17.59;98.51;95619.09;5027767;28;20034;-74
2022/06/03 06:50:02;;;;;;;10.23;6.53;;;;;;;17.64;97.48;95621.59;5025886;28;20483;-74
2022/06/03 06:52:51;;;;;;;11.10;6.53;;;;;;;17.45;97.77;95627.97;5024782;28;20418;-73
2022/06/03 06:56:00;;;;;;;12.25;6.38;;;;;;;17.66;99.08;95630.06;5020471;28;20048;-76
2022/06/03 06:58:44;;;;;;;14.88;6.18;;;;;;;17.69;97.93;95623.34;5020908;28;20115;-74
2022/06/03 07:01:14;;;;;;;10.60;6.03;;;;;;;17.95;95.99;95623.38;5027485;28;20380;-74
2022/06/03 07:04:05;;;;;;;9.60;6.40;;;;;;;17.83;97.31;95622.06;5030874;28;20044;-75
2022/06/03 07:06:30;;;;;;;11.77;6.50;;;;;;;17.79;100.00;95615.81;5027804;28;20053;-76
2022/06/03 07:09:28;;;;;;;8.77;6.13;;;;;;;17.71;100.00;95613.91;5025141;28;20038;-76
2022/06/03 07:11:58;;;;;;;9.05;5.55;;;;;;;17.71;100.00;95619.25;5027652;28;20069;-73
2022/06/03 07:14:34;;;;;;;10.70;6.07;;;;;;;17.83;96.00;95622.06;5030187;28;20473;-74
2022/06/03 07:20:05;;;;;;;10.77;6.15;;;;;;;18.22;96.34;95584.19;5025458;28;20045;-75
2022/06/03 07:22:58;;;;;;;13.23;6.45;;;;;;;18.22;93.57;95574.31;5025683;28;20049;-74
2022/06/03 07:25:42;;;;;;;10.75;6.30;;;;;;;18.33;94.45;95569.41;5009937;28;20065;-75
2022/06/03 07:28:29;;;;;;;10.25;5.95;;;;;;;17.95;97.08;95570.88;5044484;28;20044;-75
2022/06/03 07:31:04;;;;;;;14.95;6.28;;;;;;;18.15;95.75;95568.69;5032416;28;20456;-77
2022/06/03 07:33:30;;;;;;;12.20;6.53;;;;;;;18.01;96.28;95568.84;5031865;28;20049;-77
2022/06/03 07:35:58;;;;;;;10.52;6.53;;;;;;;18.03;94.64;95572.00;5031278;28;20064;-75
2022/06/03 07:38:38;;;;;;;10.73;6.35;;;;;;;17.94;96.16;95573.88;5029915;28;20041;-77
2022/06/03 07:41:22;;;;;;;7.97;6.45;;;;;;;17.92;95.38;95576.06;5028114;28;20037;-75
2022/06/03 07:43:55;;;;;;;10.15;6.50;;;;;;;17.86;97.06;95559.44;5021939;28;20045;-74
2022/06/03 07:46:43;;;;;;;15.63;6.53;;;;;;;17.92;97.44;95560.09;5025922;28;20069;-73
2022/06/03 07:49:09;;;;;;;13.90;6.45;;;;;;;17.99;97.24;95555.09;5024939;28;20045;-78
2022/06/03 07:51:41;;;;;;;13.27;6.43;;;;;;;18.69;93.47;95560.19;5025022;28;20053;-76
2022/06/03 07:54:13;;;;;;;10.10;5.85;;;;;;;19.11;90.60;95560.38;5029453;28;20116;-76
2022/06/03 07:56:40;;;;;;;10.07;5.43;;;;;;;19.24;87.76;95557.75;5027133;28;20068;-75
2022/06/03 07:59:17;;;;;;;8.30;5.90;;;;;;;19.15;89.05;95555.16;5027496;28;20111;-75
2022/06/03 08:01:55;;;;;;;10.40;5.90;;;;;;;19.12;92.11;95561.13;5031179;28;20042;-73
2022/06/03 08:04:36;;;;;;;13.15;6.30;;;;;;;19.38;88.64;95569.00;5023798;28;20120;-75
2022/06/03 08:12:39;;;;;;;12.68;6.10;;;;;;;19.15;91.05;95566.63;5033739;28;20576;-77
2022/06/03 08:15:16;;;;;;;9.40;6.05;;;;;;;19.09;89.87;95557.22;5032619;28;20053;-76
2022/06/03 08:17:44;;;;;;;11.98;5.88;;;;;;;19.11;92.94;95552.34;5032537;28;20607;-77
2022/06/03 08:20:10;;;;;;;13.13;6.38;;;;;;;19.35;88.59;95556.28;5030093;28;20056;-75
2022/06/03 08:22:37;;;;;;;11.07;6.60;;;;;;;19.50;88.17;95555.72;5028054;28;20046;-74
2022/06/03 08:25:05;;;;;;;14.38;6.75;;;;;;;19.48;86.49;95552.59;5032067;28;20041;-76
2022/06/03 08:27:35;;;;;;;11.02;6.03;;;;;;;19.50;85.31;95550.38;5040776;28;20048;-76
2022/06/03 08:30:05;;;;;;;11.80;6.05;;;;;;;19.48;84.38;95541.13;5028813;28;20095;-77
2022/06/03 08:32:58;;;;;;;12.63;6.25;;;;;;;19.70;85.63;95548.81;5030495;28;20049;-83
2022/06/03 08:35:28;;;;;;;10.73;6.13;;;;;;;19.81;83.77;95538.53;5024244;28;20515;-77
2022/06/03 08:37:59;;;;;;;10.75;5.72;;;;;;;20.21;83.43;95540.69;5026557;28;20046;-72
2022/06/03 08:40:43;;;;;;;12.02;6.10;;;;;;;19.97;83.91;95535.25;5029939;28;20188;-73
2022/06/03 08:43:37;;;;;;;10.73;6.40;;;;;;;19.93;85.45;95526.34;5017350;28;20041;-74
2022/06/03 08:46:11;;;;;;;8.38;5.95;;;;;;;19.93;85.59;95529.03;5022993;28;20040;-74
2022/06/03 08:48:45;;;;;;;9.00;5.95;;;;;;;19.95;82.41;95537.47;5023005;28;20041;-73
2022/06/03 08:51:22;;;;;;;;;;;;;;;20.18;80.11;95540.53;5031215;28;20041;-74
2022/06/03 08:54:21;;;;;;;11.73;5.70;;;;;;;20.36;79.88;95535.81;5029700;28;19921;-74
2022/06/03 08:56:51;;;;;;;8.43;5.35;;;;;;;20.49;82.55;95529.38;5031267;28;20037;-73
2022/06/03 08:59:41;;;;;;;8.55;5.65;;;;;;;20.68;83.33;95530.75;5024130;28;20042;-74
2022/06/03 09:02:11;;;;;;;10.82;5.82;;;;;;;20.81;79.71;95523.50;5028719;28;20044;-73
2022/06/03 09:04:47;;;;;;;10.98;5.40;;;;;;;20.73;79.99;95533.19;5031258;28;20428;-74
2022/06/03 09:07:34;;;;;;;11.60;5.78;;;;;;;21.24;78.42;95530.16;5026216;28;20050;-74
2022/06/03 09:10:18;;;;;;;9.35;5.43;;;;;;;21.37;77.74;95528.25;5029369;28;20046;-74
2022/06/03 09:12:52;;;;;;;15.70;6.73;;;;;;;21.14;77.61;95527.94;5026022;28;20088;-74
2022/06/03 09:15:22;;;;;;;9.10;5.85;;;;;;;21.28;78.43;95526.47;5031660;28;20271;-74
2022/06/03 09:18:14;;;;;;;7.97;5.97;;;;;;;21.27;77.29;95524.91;5029741;28;20037;-74
2022/06/03 09:20:47;;;;;;;9.30;5.90;;;;;;;21.34;78.80;95528.91;5020010;28;20058;-74
2022/06/03 09:23:22;;;;;;;11.27;5.93;;;;;;;21.49;75.99;95519.38;5022705;28;20045;-75
2022/06/03 09:25:54;;;;;;;8.32;6.10;;;;;;;21.79;77.16;95517.19;5031063;28;20149;-76
2022/06/03 09:28:25;;;;;;;12.02;6.75;;;;;;;22.03;76.60;95520.91;5030465;28;20675;-75
2022/06/03 09:30:51;;;;;;;9.70;6.70;;;;;;;21.83;76.08;95512.72;5023785;28;20388;-76
2022/06/03 09:33:21;;;;;;;10.13;6.32;;;;;;;21.77;75.29;95509.50;5029852;28;20045;-77
2022/06/03 09:35:51;;;;;;;9.60;6.32;;;;;;;21.77;76.69;95503.38;5031419;28;20037;-78
2022/06/03 09:38:21;;;;;;;9.95;6.70;;;;;;;21.97;73.72;95497.00;5022183;28;20419;-76
2022/06/03 09:40:48;;;;;;;13.93;6.72;;;;;;;22.00;74.07;95505.50;5029369;28;20483;-76
2022/06/03 09:43:27;;;;;;;11.70;6.10;;;;;;;22.13;73.43;95488.22;5018977;28;20089;-76
2022/06/03 09:45:56;;;;;;;9.65;5.90;;;;;;;22.33;73.38;95491.06;5026219;28;20069;-76
2022/06/03 09:48:26;;;;;;;14.93;6.25;;;;;;;22.35;75.09;95486.13;5020475;28;20120;-75
2022/06/03 09:50:55;;;;;;;12.68;6.22;;;;;;;22.75;72.15;95485.13;5021027;28;20109;-73
2022/06/03 09:53:25;;;;;;;12.02;6.38;;;;;;;22.80;71.59;95487.53;5031365;28;20049;-76
2022/06/03 09:55:57;;;;;;;8.20;6.32;;;;;;;22.69;71.06;95478.50;5044314;28;20120;-75
2022/06/03 09:58:28;;;;;;;8.98;6.25;;;;;;;22.76;71.25;95481.34;5030187;28;20034;-76
2022/06/03 10:00:55;;;;;;;11.95;6.63;;;;;;;22.91;71.30;95477.06;5024890;28;20042;-78
2022/06/03 10:03:21;;;;;;;9.15;6.25;;;;;;;23.35;68.72;95474.97;5036961;28;20044;-79
2022/06/03 10:05:50;;;;;;;24.88;7.15;;;;;;;23.31;69.70;95468.72;5040644;28;20049;-79
2022/06/03 10:08:18;;;;;;;9.60;6.40;;;;;;;23.45;71.07;95462.13;5018807;28;20076;-77
2022/06/03 10:13:31;;;;;;;11.85;6.70;;;;;;;24.10;66.45;95447.19;5031219;28;20132;-77
2022/06/03 10:15:59;;;;;;;10.85;6.85;;;;;;;24.21;67.95;95454.31;5030182;28;20042;-76
2022/06/03 10:18:41;;;;;;;8.88;6.88;;;;;;;24.56;66.42;95439.09;5026698;28;20076;-77
2022/06/03 10:21:06;;;;;;;10.32;7.00;;;;;;;24.43;65.83;95437.75;5021074;28;20048;-76
2022/06/03 10:23:35;;;;;;;12.75;6.78;;;;;;;24.57;65.69;95437.97;5029433;28;20029;-75
2022/06/03 10:26:01;;;;;;;11.82;6.70;;;;;;;24.68;65.64;95438.94;5030419;28;20499;-77
2022/06/03 10:28:35;;;;;;;14.73;7.15;;;;;;;24.59;64.40;95437.59;5031196;28;20034;-77
2022/06/03 10:31:07;;;;;;;12.43;7.00;;;;;;;24.84;64.63;95435.28;5033636;28;20052;-78
2022/06/03 10:33:34;;;;;;;11.98;7.10;;;;;;;25.06;64.22;95437.13;5034039;28;20072;-75
2022/06/03 10:36:01;;;;;;;10.30;7.05;;;;;;;25.35;63.57;95431.34;5033836;28;20042;-75
2022/06/03 10:38:30;;;;;;;17.80;7.47;;;;;;;25.50;62.35;95429.59;5028469;28;20544;-77
2022/06/03 10:41:02;;;;;;;10.23;7.30;;;;;;;25.55;61.36;95421.19;5033141;28;20430;-77
2022/06/03 10:43:31;;;;;;;9.57;6.93;;;;;;;25.82;59.21;95416.47;5033331;28;20042;-81
2022/06/03 10:46:15;;;;;;;11.32;7.22;;;;;;;26.13;57.39;95408.28;5033101;28;20499;-73
2022/06/03 10:48:42;;;;;;;9.32;7.38;;;;;;;26.42;56.89;95415.47;5029270;28;20521;-76
2022/06/03 11:02:38;;;;;;;12.98;6.38;;;;;;;27.56;51.93;95418.41;5031938;28;20057;-75
2022/06/03 11:05:12;;;;;;;7.68;6.47;;;;;;;27.39;52.58;95404.44;5033742;28;20047;-75
2022/06/03 11:07:38;;;;;;;11.38;6.78;;;;;;;27.12;52.71;95407.44;5031728;28;20042;-75
2022/06/03 11:10:13;;;;;;;8.70;5.90;;;;;;;26.99;53.72;95395.38;5023628;28;20107;-76
2022/06/03 11:12:40;;;;;;;11.60;6.50;;;;;;;28.15;51.99;95389.16;5028588;28;20052;-76
2022/06/03 11:15:47;;;;;;;9.77;6.20;;;;;;;28.32;51.04;95392.25;5027487;28;20049;-74
2022/06/03 11:18:17;;;;;;;10.77;6.72;;;;;;;28.84;50.75;95389.84;5029222;28;20041;-74
2022/06/03 11:20:50;;;;;;;9.00;6.15;;;;;;;28.66;51.04;95394.53;5029120;28;20061;-74
2022/06/03 11:23:16;;;;;;;7.72;6.03;;;;;;;28.73;49.22;95389.09;5030118;28;20049;-75
2022/06/03 11:25:49;;;;;;;10.30;6.75;;;;;;;29.36;50.43;95391.25;5030716;28;20033;-76
2022/06/03 11:28:39;;;;;;;6.40;5.78;;;;;;;30.34;48.40;95386.75;5031019;28;20123;-75
2022/06/03 11:31:10;;;;;;;8.80;5.60;;;;;;;30.24;45.74;95399.25;5032750;28;20491;-76
2022/06/03 11:33:44;;;;;;;6.82;5.80;;;;;;;29.32;45.60;95395.91;5033240;28;20049;-77
2022/06/03 11:36:30;;;;;;;7.55;5.57;;;;;;;29.29;46.07;95396.69;5028770;28;20098;-78
2022/06/03 11:39:04;;;;;;;7.47;5.40;;;;;;;29.03;46.23;95401.41;5030924;28;20041;-78
2022/06/03 11:41:37;;;;;;;7.03;5.78;;;;;;;30.52;45.36;95386.59;5027669;28;20037;-74
2022/06/03 11:44:13;;;;;;;8.57;5.53;;;;;;;29.78;45.86;95391.41;5024503;28;20045;-74
2022/06/03 11:47:06;;;;;;;8.60;5.82;;;;;;;29.27;46.01;95382.78;5029823;28;20037;-75
2022/06/03 11:49:33;;;;;;;7.38;5.82;;;;;;;29.53;46.39;95381.47;5030914;28;20049;-74
2022/06/03 11:52:00;;;;;;;8.05;5.47;;;;;;;30.14;44.00;95372.97;5029626;28;20060;-76
2022/06/03 11:54:27;;;;;;;7.72;5.10;;;;;;;29.05;46.24;95372.00;5029950;28;20049;-76
2022/06/03 11:56:53;;;;;;;9.82;4.90;;;;;;;30.07;44.78;95373.03;5028412;28;20065;-74
2022/06/03 11:59:34;;;;;;;7.15;5.13;;;;;;;29.52;45.25;95378.00;5030149;28;20128;-75
2022/06/03 12:02:21;;;;;;;6.13;5.10;;;;;;;29.43;44.02;95379.59;5030156;28;20063;-74
2022/06/03 12:05:17;;;;;;;10.13;5.30;;;;;;;29.09;45.04;95382.81;5027492;28;20048;-77
2022/06/03 12:07:54;;;;;;;9.13;5.07;;;;;;;29.43;46.87;95396.63;5029708;28;20042;-75
2022/06/03 12:10:43;;;;;;;5.43;4.75;;;;;;;29.68;45.14;95390.28;5030169;28;20510;-75
2022/06/03 12:13:27;;;;;;;7.07;5.65;;;;;;;28.90;45.81;95397.59;5023569;28;20052;-76
2022/06/03 12:15:52;;;;;;;7.38;5.10;;;;;;;28.96;45.20;95390.59;5030475;28;20495;-78
2022/06/03 12:18:39;;;;;;;7.68;4.95;;;;;;;29.36;45.59;95374.97;5028270;28;20044;-80
2022/06/03 12:21:26;;;;;;;8.68;5.28;;;;;;;29.80;45.30;95375.53;5027819;28;20041;-76
2022/06/03 12:23:54;;;;;;;6.28;5.32;;;;;;;29.01;45.74;95372.00;5028386;28;20053;-79
2022/06/03 12:26:31;;;;;;;10.05;5.45;;;;;;;28.55;46.93;95359.34;5021967;28;20041;-77
2022/06/03 12:29:22;;;;;;;7.45;5.38;;;;;;;29.37;46.35;95376.53;5026428;28;20041;-76
2022/06/03 12:31:48;;;;;;;12.95;5.28;;;;;;;29.25;46.23;95369.63;5023858;28;20065;-73
2022/06/03 12:34:27;;;;;;;7.80;4.97;;;;;;;28.78;45.63;95369.75;5028532;28;20041;-75
2022/06/03 12:37:00;;;;;;;7.15;5.25;;;;;;;29.12;47.44;95361.16;5029935;28;21017;-74
2022/06/03 12:39:50;;;;;;;7.85;5.43;;;;;;;28.33;47.27;95366.72;5029471;28;20057;-73
2022/06/03 12:42:37;;;;;;;9.32;5.43;;;;;;;27.96;48.14;95357.06;5023285;28;20069;-72
2022/06/03 12:45:03;;;;;;;7.65;5.22;;;;;;;28.00;49.12;95355.13;5030039;28;20064;-73
2022/06/03 12:47:31;;;;;;;7.07;5.35;;;;;;;27.83;49.56;95357.44;5026501;28;20052;-74